Time;durP1;ratioP1;P1;durP2;ratioP2;P2;SDS_P1;SDS_P2;PMS_P1;PMS_P2;Temp;Humidity;BMP_temperature;BMP_pressure;BME280_temperature;BME280_humidity;BME280_pressure;Samples;Min_cycle;Max_cycle;Signal;HPM_P1;HPM_P2
2022/07/19 00:01:34;;;;;;;1.13;0.40;;;19.60;99.90;;;;;;5014872;28;20079;-74
2022/07/19 00:04:00;;;;;;;1.23;0.40;;;19.60;99.90;;;;;;5010917;28;20034;-83
2022/07/19 00:06:25;;;;;;;1.85;0.50;;;19.50;99.90;;;;;;5008099;28;20108;-74
2022/07/19 00:08:51;;;;;;;2.05;0.43;;;19.50;99.90;;;;;;5022410;28;20029;-74
2022/07/19 00:11:17;;;;;;;1.38;0.50;;;19.40;99.90;;;;;;5027219;28;20036;-75
2022/07/19 00:13:43;;;;;;;6.07;0.63;;;19.40;99.90;;;;;;5025358;28;20041;-74
2022/07/19 00:16:08;;;;;;;1.38;0.70;;;19.30;99.90;;;;;;5021384;28;20041;-74
2022/07/19 00:18:34;;;;;;;1.27;0.50;;;19.20;99.90;;;;;;5023478;28;20091;-77
2022/07/19 00:21:00;;;;;;;1.17;0.57;;;19.20;99.90;;;;;;5024056;28;20021;-75
2022/07/19 00:23:26;;;;;;;1.63;0.50;;;19.20;99.90;;;;;;5024452;28;20026;-74
2022/07/19 00:25:52;;;;;;;1.10;0.60;;;19.10;99.90;;;;;;5002157;28;20021;-74
2022/07/19 00:28:18;;;;;;;1.52;0.60;;;19.10;99.90;;;;;;5014212;28;20136;-74
2022/07/19 00:30:43;;;;;;;1.85;0.50;;;19.10;99.90;;;;;;5020284;28;20017;-74
2022/07/19 00:33:09;;;;;;;1.20;0.50;;;19.20;99.90;;;;;;5024468;28;20182;-79
2022/07/19 00:35:36;;;;;;;1.60;0.50;;;19.10;99.90;;;;;;5010614;28;20048;-75
2022/07/19 00:38:09;;;;;;;1.60;0.50;;;19.00;99.90;;;;;;5025392;28;20061;-74
2022/07/19 00:40:37;;;;;;;2.28;0.65;;;18.90;99.90;;;;;;5021398;28;20038;-75
2022/07/19 00:43:03;;;;;;;2.28;0.63;;;18.90;99.90;;;;;;5025386;28;20032;-74
2022/07/19 00:45:29;;;;;;;1.77;0.60;;;18.90;99.90;;;;;;5030846;28;20108;-74
2022/07/19 00:47:55;;;;;;;1.30;0.50;;;18.80;99.90;;;;;;5019836;28;20097;-74
2022/07/19 00:50:21;;;;;;;1.77;0.50;;;18.80;99.90;;;;;;5022738;28;20448;-73
2022/07/19 00:52:51;;;;;;;3.20;0.55;;;18.70;99.90;;;;;;5019702;28;20044;-74
2022/07/19 00:55:22;;;;;;;1.30;0.50;;;18.70;99.90;;;;;;5028280;28;20029;-74
2022/07/19 00:57:47;;;;;;;1.33;0.50;;;18.70;99.90;;;;;;5008226;28;20026;-75
2022/07/19 01:00:15;;;;;;;1.35;0.40;;;18.70;99.90;;;;;;5014775;28;20036;-74
2022/07/19 01:02:41;;;;;;;1.30;0.50;;;18.60;99.90;;;;;;5026746;28;20145;-74
2022/07/19 01:05:08;;;;;;;1.52;0.50;;;18.60;99.90;;;;;;5031437;28;20097;-74
2022/07/19 01:07:37;;;;;;;3.25;0.68;;;18.50;99.90;;;;;;5027228;28;20053;-75
2022/07/19 01:10:05;;;;;;;2.27;0.60;;;18.50;99.90;;;;;;5006284;28;20061;-74
2022/07/19 01:12:32;;;;;;;1.83;0.60;;;18.50;99.90;;;;;;5014775;28;20421;-74
2022/07/19 01:14:59;;;;;;;3.15;0.50;;;18.50;99.90;;;;;;5026506;28;20064;-75
2022/07/19 01:17:25;;;;;;;3.08;0.60;;;18.50;99.90;;;;;;5014672;28;20034;-74
2022/07/19 01:19:51;;;;;;;1.50;0.52;;;18.50;99.90;;;;;;5024944;28;20068;-73
2022/07/19 01:22:17;;;;;;;2.63;0.50;;;18.40;99.90;;;;;;4999315;28;20492;-74
2022/07/19 01:24:42;;;;;;;1.80;0.40;;;18.30;99.90;;;;;;5029120;28;20025;-74
2022/07/19 01:27:08;;;;;;;1.33;0.43;;;18.30;99.90;;;;;;5024306;28;20037;-74
2022/07/19 01:29:36;;;;;;;2.30;0.60;;;18.30;99.90;;;;;;5026917;28;20025;-75
2022/07/19 01:32:02;;;;;;;1.60;0.60;;;18.20;99.90;;;;;;5030342;28;20045;-74
2022/07/19 01:34:28;;;;;;;1.80;0.50;;;18.00;99.90;;;;;;5013261;28;20038;-74
2022/07/19 01:36:54;;;;;;;1.83;0.50;;;18.00;99.90;;;;;;5019130;28;20548;-74
2022/07/19 01:39:20;;;;;;;1.60;0.65;;;18.00;99.90;;;;;;5028712;28;20374;-74
2022/07/19 01:41:46;;;;;;;1.80;0.52;;;18.00;99.90;;;;;;5034569;28;20025;-74
2022/07/19 01:44:11;;;;;;;1.50;0.50;;;18.10;99.90;;;;;;5025558;28;20092;-74
2022/07/19 01:46:37;;;;;;;3.33;0.60;;;18.00;99.90;;;;;;5013729;28;20513;-74
2022/07/19 01:49:03;;;;;;;1.45;0.50;;;18.00;99.90;;;;;;5030035;28;20073;-74
2022/07/19 01:51:29;;;;;;;1.58;0.50;;;18.00;99.90;;;;;;5023746;28;20040;-74
2022/07/19 01:53:54;;;;;;;1.55;0.57;;;18.00;99.90;;;;;;5026343;28;20041;-77
2022/07/19 01:56:20;;;;;;;2.45;0.50;;;17.90;99.90;;;;;;5011891;28;20025;-74
2022/07/19 01:58:46;;;;;;;1.25;0.50;;;17.90;99.90;;;;;;5030691;28;20067;-74
2022/07/19 02:01:11;;;;;;;1.55;0.70;;;17.80;99.90;;;;;;5028978;28;20098;-75
2022/07/19 02:03:37;;;;;;;2.50;0.70;;;17.80;99.90;;;;;;5030395;28;20045;-74
2022/07/19 02:06:03;;;;;;;3.60;0.70;;;17.80;99.90;;;;;;5024528;28;20021;-75
2022/07/19 02:08:29;;;;;;;2.58;0.70;;;17.80;99.90;;;;;;5026351;28;20040;-74
2022/07/19 02:10:54;;;;;;;4.55;0.80;;;17.80;99.90;;;;;;5024626;28;20057;-74
2022/07/19 02:13:20;;;;;;;1.50;0.85;;;17.70;99.90;;;;;;5030499;28;20033;-74
2022/07/19 02:15:46;;;;;;;2.53;0.90;;;17.60;99.90;;;;;;5028101;28;20022;-74
2022/07/19 02:18:12;;;;;;;2.72;0.77;;;17.60;99.90;;;;;;5022606;28;20079;-74
2022/07/19 02:20:37;;;;;;;2.30;0.85;;;17.60;99.90;;;;;;5028814;28;20480;-74
2022/07/19 02:23:03;;;;;;;2.17;0.88;;;17.60;99.90;;;;;;5024622;28;20037;-74
2022/07/19 02:25:29;;;;;;;2.17;0.70;;;17.60;99.90;;;;;;5022761;28;20343;-74
2022/07/19 02:27:54;;;;;;;1.88;1.00;;;17.60;99.90;;;;;;5019489;28;20021;-74
2022/07/19 02:30:20;;;;;;;2.08;0.80;;;17.50;99.90;;;;;;5029003;28;20505;-74
2022/07/19 02:32:46;;;;;;;2.33;0.85;;;17.50;99.90;;;;;;5010067;28;20037;-74
2022/07/19 02:35:12;;;;;;;1.95;0.90;;;17.40;99.90;;;;;;5008798;28;20076;-74
2022/07/19 02:37:41;;;;;;;4.65;0.95;;;17.40;99.90;;;;;;5031425;28;20061;-74
2022/07/19 02:40:08;;;;;;;1.60;0.75;;;17.40;99.90;;;;;;5028811;28;20037;-74
2022/07/19 02:42:34;;;;;;;1.67;0.70;;;17.40;99.90;;;;;;5009331;28;20041;-74
2022/07/19 02:44:59;;;;;;;3.03;0.90;;;17.40;99.90;;;;;;5023626;28;20374;-75
2022/07/19 02:47:25;;;;;;;2.72;0.80;;;17.30;99.90;;;;;;5024047;28;20393;-74
2022/07/19 02:49:51;;;;;;;2.63;0.75;;;17.30;99.90;;;;;;5027659;28;20029;-74
2022/07/19 02:52:17;;;;;;;1.90;0.93;;;17.30;99.90;;;;;;5024944;28;20040;-74
2022/07/19 02:54:42;;;;;;;2.15;0.70;;;17.30;99.90;;;;;;5022672;28;20105;-74
2022/07/19 02:57:08;;;;;;;1.60;0.80;;;17.30;99.90;;;;;;5024831;28;20025;-74
2022/07/19 02:59:34;;;;;;;2.63;0.90;;;17.20;99.90;;;;;;5026440;28;20033;-74
2022/07/19 03:01:59;;;;;;;2.25;0.75;;;17.30;99.90;;;;;;5024172;28;20393;-74
2022/07/19 03:04:25;;;;;;;2.63;0.88;;;17.20;99.90;;;;;;5004869;28;20490;-74
2022/07/19 03:06:50;;;;;;;2.88;1.23;;;17.20;99.90;;;;;;5011500;28;20034;-74
2022/07/19 03:09:16;;;;;;;3.10;0.77;;;17.10;99.90;;;;;;5015946;28;20025;-75
2022/07/19 03:11:42;;;;;;;2.88;1.10;;;17.10;99.90;;;;;;5027050;28;20033;-74
2022/07/19 03:14:07;;;;;;;2.60;0.88;;;17.10;99.90;;;;;;5022879;28;20049;-74
2022/07/19 03:16:33;;;;;;;1.95;0.80;;;17.10;99.90;;;;;;5010020;28;20052;-74
2022/07/19 03:18:59;;;;;;;3.38;1.15;;;17.10;99.90;;;;;;5027810;28;20029;-74
2022/07/19 03:21:24;;;;;;;1.90;1.00;;;17.00;99.90;;;;;;5027917;28;20087;-74
2022/07/19 03:23:50;;;;;;;2.22;1.17;;;17.00;99.90;;;;;;5022509;28;20037;-74
2022/07/19 03:26:16;;;;;;;3.00;1.10;;;17.10;99.90;;;;;;5024136;28;20032;-74
2022/07/19 03:28:41;;;;;;;3.50;1.02;;;17.00;99.90;;;;;;5023274;28;20049;-73
2022/07/19 03:31:07;;;;;;;4.53;1.27;;;17.00;99.90;;;;;;5028184;28;20099;-74
2022/07/19 03:33:33;;;;;;;3.88;1.05;;;17.00;99.90;;;;;;5023921;28;20030;-75
2022/07/19 03:35:59;;;;;;;2.60;1.23;;;17.00;99.90;;;;;;5006901;28;20029;-74
2022/07/19 03:38:25;;;;;;;1.98;0.90;;;17.00;99.90;;;;;;5026338;28;20049;-74
2022/07/19 03:40:51;;;;;;;3.85;1.40;;;16.90;99.90;;;;;;5025456;28;20023;-74
2022/07/19 03:43:17;;;;;;;2.67;1.30;;;16.90;99.90;;;;;;5017321;28;20041;-74
2022/07/19 03:45:44;;;;;;;2.83;1.30;;;17.00;99.90;;;;;;5024043;28;20055;-74
2022/07/19 03:48:10;;;;;;;2.88;1.30;;;17.00;99.90;;;;;;5021857;28;20029;-74
2022/07/19 03:50:36;;;;;;;2.55;1.30;;;17.10;99.90;;;;;;5024616;28;20025;-74
2022/07/19 03:53:02;;;;;;;2.38;1.55;;;17.10;99.90;;;;;;5026778;28;20512;-74
2022/07/19 03:55:27;;;;;;;2.75;1.17;;;17.00;99.90;;;;;;5022806;28;20064;-73
2022/07/19 03:57:53;;;;;;;2.40;1.30;;;17.00;99.90;;;;;;5023353;28;20025;-74
2022/07/19 04:00:19;;;;;;;5.97;1.52;;;17.00;99.90;;;;;;5009030;28;20099;-74
2022/07/19 04:02:44;;;;;;;2.75;1.73;;;17.00;99.90;;;;;;5003008;28;20196;-75
2022/07/19 04:05:11;;;;;;;3.10;1.40;;;16.90;99.90;;;;;;5010240;28;20025;-74
2022/07/19 04:07:37;;;;;;;2.75;1.60;;;17.00;99.90;;;;;;5013446;28;21727;-74
2022/07/19 04:10:03;;;;;;;3.58;1.67;;;17.00;99.90;;;;;;5022937;28;20103;-73
2022/07/19 04:12:29;;;;;;;3.30;1.83;;;17.00;99.90;;;;;;5029008;28;20116;-74
2022/07/19 04:14:54;;;;;;;4.45;2.03;;;17.00;99.90;;;;;;5010826;28;20041;-74
2022/07/19 04:17:21;;;;;;;4.75;1.60;;;17.00;99.90;;;;;;5022226;28;20466;-74
2022/07/19 04:19:46;;;;;;;2.70;1.60;;;17.00;99.90;;;;;;5013331;28;20021;-74
2022/07/19 04:22:12;;;;;;;2.60;1.63;;;17.00;99.90;;;;;;5027327;28;20565;-74
2022/07/19 04:24:38;;;;;;;3.13;1.30;;;17.00;99.90;;;;;;5020364;28;20462;-74
2022/07/19 04:27:04;;;;;;;7.07;2.55;;;17.00;99.90;;;;;;5026805;28;20674;-74
2022/07/19 04:29:29;;;;;;;4.65;2.65;;;17.20;99.90;;;;;;5028010;28;20037;-74
2022/07/19 04:31:55;;;;;;;4.30;2.67;;;17.30;99.90;;;;;;5025878;28;20132;-74
2022/07/19 04:34:21;;;;;;;4.43;2.28;;;17.20;99.90;;;;;;5025263;28;20071;-74
2022/07/19 04:36:46;;;;;;;3.20;1.63;;;17.30;99.90;;;;;;5022277;28;20035;-75
2022/07/19 04:39:12;;;;;;;4.72;1.63;;;17.30;99.90;;;;;;5008639;28;20052;-73
2022/07/19 04:41:37;;;;;;;3.88;1.98;;;17.40;99.90;;;;;;5025872;28;20476;-74
2022/07/19 04:44:03;;;;;;;3.60;2.00;;;17.50;99.90;;;;;;5025029;28;20033;-75
2022/07/19 04:46:29;;;;;;;3.40;1.70;;;17.50;99.90;;;;;;5025955;28;20473;-74
2022/07/19 04:48:54;;;;;;;3.17;1.67;;;17.60;99.90;;;;;;5013302;28;20076;-75
2022/07/19 04:51:20;;;;;;;3.47;1.67;;;17.70;99.90;;;;;;5024563;28;20021;-74
2022/07/19 04:53:46;;;;;;;5.32;2.03;;;17.90;99.90;;;;;;5024579;28;20030;-75
2022/07/19 04:56:11;;;;;;;4.32;2.40;;;18.00;99.90;;;;;;5023859;28;20042;-75
2022/07/19 04:58:37;;;;;;;3.78;1.42;;;18.10;99.90;;;;;;5023556;28;20508;-75
2022/07/19 05:01:03;;;;;;;2.60;1.75;;;18.20;99.90;;;;;;5021912;28;20037;-73
2022/07/19 05:03:28;;;;;;;2.60;1.20;;;18.30;99.90;;;;;;5029004;28;20038;-74
2022/07/19 05:05:54;;;;;;;2.00;0.82;;;18.50;99.90;;;;;;5023189;28;20490;-75
2022/07/19 05:08:20;;;;;;;2.40;1.23;;;18.70;99.90;;;;;;5007292;28;20030;-74
2022/07/19 05:10:45;;;;;;;2.63;1.00;;;18.90;99.90;;;;;;5024274;28;20021;-74
2022/07/19 05:13:11;;;;;;;4.85;1.45;;;19.10;99.90;;;;;;5021802;28;20056;-74
2022/07/19 05:15:37;;;;;;;2.90;1.25;;;19.20;99.90;;;;;;5023048;28;20041;-74
2022/07/19 05:18:02;;;;;;;2.40;1.00;;;19.30;99.90;;;;;;5010030;28;20029;-74
2022/07/19 05:20:28;;;;;;;3.17;0.90;;;19.50;99.90;;;;;;5024408;28;20045;-76
2022/07/19 05:22:54;;;;;;;3.95;1.30;;;19.60;99.90;;;;;;5026022;28;20040;-74
2022/07/19 05:25:19;;;;;;;2.55;0.90;;;19.70;99.90;;;;;;5028482;28;20113;-74
2022/07/19 05:27:45;;;;;;;1.65;0.80;;;19.90;99.90;;;;;;5010786;28;20025;-76
2022/07/19 05:30:12;;;;;;;3.42;0.90;;;19.90;99.90;;;;;;5012771;28;20080;-75
2022/07/19 05:32:38;;;;;;;3.08;0.93;;;20.00;99.90;;;;;;5022493;28;20750;-75
2022/07/19 05:35:04;;;;;;;3.20;1.23;;;20.10;99.90;;;;;;5023350;28;20037;-75
2022/07/19 05:37:29;;;;;;;1.90;1.00;;;20.20;99.90;;;;;;5025593;28;20045;-75
2022/07/19 05:39:55;;;;;;;2.45;1.02;;;20.30;99.90;;;;;;5023479;28;20026;-75
2022/07/19 05:42:21;;;;;;;2.95;1.10;;;20.40;99.90;;;;;;5022089;28;20033;-75
2022/07/19 05:44:46;;;;;;;1.77;1.17;;;20.50;99.90;;;;;;5021844;28;20099;-74
2022/07/19 05:47:13;;;;;;;3.45;1.10;;;20.60;99.90;;;;;;5025729;28;20148;-74
2022/07/19 05:49:39;;;;;;;2.10;1.02;;;20.80;99.90;;;;;;5029003;28;20097;-75
2022/07/19 05:52:05;;;;;;;2.72;1.15;;;20.90;99.90;;;;;;5011301;28;20428;-75
2022/07/19 05:54:30;;;;;;;2.63;1.08;;;21.10;99.90;;;;;;5025368;28;20068;-75
2022/07/19 05:56:56;;;;;;;4.25;1.17;;;21.30;99.90;;;;;;5023542;28;20025;-75
2022/07/19 05:59:22;;;;;;;2.40;1.52;;;21.40;99.90;;;;;;5021682;28;20033;-75
2022/07/19 06:01:51;;;;;;;4.05;1.20;;;21.60;99.90;;;;;;5021717;28;20028;-74
2022/07/19 06:04:16;;;;;;;2.75;1.00;;;21.80;99.90;;;;;;5021641;28;20478;-75
2022/07/19 06:06:42;;;;;;;1.88;0.80;;;22.00;99.90;;;;;;5021648;28;20056;-76
2022/07/19 06:09:09;;;;;;;6.13;1.10;;;22.20;99.90;;;;;;5006628;28;20040;-75
2022/07/19 06:11:36;;;;;;;2.17;1.10;;;22.40;99.90;;;;;;5025812;28;20050;-75
2022/07/19 06:14:02;;;;;;;2.30;1.02;;;22.70;99.90;;;;;;5023183;28;20485;-75
2022/07/19 06:16:28;;;;;;;2.67;1.10;;;22.90;99.90;;;;;;5016929;28;20091;-75
2022/07/19 06:18:55;;;;;;;2.05;1.17;;;23.10;99.90;;;;;;5022727;28;20286;-74
2022/07/19 06:21:21;;;;;;;2.67;1.20;;;23.40;99.90;;;;;;5021917;28;20272;-75
2022/07/19 06:23:47;;;;;;;2.70;0.93;;;23.60;99.90;;;;;;5023447;28;20268;-74
2022/07/19 06:26:14;;;;;;;3.53;1.10;;;23.80;99.90;;;;;;5013126;28;20025;-76
2022/07/19 06:28:40;;;;;;;5.30;0.93;;;24.00;99.90;;;;;;5024699;28;20034;-75
2022/07/19 06:31:10;;;;;;;3.33;1.00;;;24.20;99.90;;;;;;5004905;28;20112;-75
2022/07/19 06:33:39;;;;;;;4.95;1.05;;;24.40;99.90;;;;;;5020545;28;20034;-75
2022/07/19 06:36:06;;;;;;;3.40;0.82;;;24.50;99.90;;;;;;5027614;28;20482;-75
2022/07/19 06:38:31;;;;;;;4.30;0.90;;;24.70;99.90;;;;;;5028071;28;20060;-74
2022/07/19 06:40:57;;;;;;;5.35;1.10;;;24.90;99.90;;;;;;5023194;28;20124;-75
2022/07/19 06:43:23;;;;;;;3.78;0.90;;;25.10;99.90;;;;;;5022766;28;20038;-75
2022/07/19 06:45:48;;;;;;;3.42;1.20;;;25.30;99.90;;;;;;5001524;28;20551;-75
2022/07/19 06:48:14;;;;;;;3.65;1.00;;;25.50;99.90;;;;;;5022739;28;20134;-75
2022/07/19 06:50:40;;;;;;;1.88;0.68;;;25.70;99.90;;;;;;5010331;28;20042;-75
2022/07/19 06:53:05;;;;;;;2.85;0.65;;;25.90;99.90;;;;;;4995328;28;20099;-74
2022/07/19 06:55:31;;;;;;;3.15;0.70;;;26.20;99.90;;;;;;5011444;28;20049;-85
2022/07/19 06:57:56;;;;;;;1.70;0.50;;;26.40;99.90;;;;;;5020590;28;20033;-75
2022/07/19 07:00:22;;;;;;;1.92;0.40;;;26.50;99.90;;;;;;5003853;28;20044;-75
2022/07/19 07:02:48;;;;;;;2.67;0.50;;;26.60;99.90;;;;;;5018957;28;20040;-75
2022/07/19 07:05:14;;;;;;;2.38;0.50;;;26.90;99.90;;;;;;5022771;28;20112;-76
2022/07/19 07:07:41;;;;;;;2.33;0.50;;;26.90;99.90;;;;;;5014021;28;20401;-75
2022/07/19 07:10:08;;;;;;;2.20;0.40;;;27.20;99.90;;;;;;5020020;28;20595;-75
2022/07/19 07:12:34;;;;;;;2.03;0.60;;;27.40;99.90;;;;;;5018125;28;20084;-75
2022/07/19 07:15:00;;;;;;;3.50;0.60;;;27.60;99.90;;;;;;5015510;28;20124;-75
2022/07/19 07:17:25;;;;;;;2.78;0.50;;;27.80;99.90;;;;;;5005954;28;20593;-75
2022/07/19 07:19:51;;;;;;;2.15;0.50;;;27.80;99.90;;;;;;5007222;28;20312;-79
2022/07/19 07:22:17;;;;;;;3.92;0.40;;;28.00;99.90;;;;;;5023063;28;20132;-76
2022/07/19 07:24:43;;;;;;;3.67;0.40;;;28.30;99.90;;;;;;5018567;28;20379;-75
2022/07/19 07:27:08;;;;;;;3.05;0.40;;;28.50;99.90;;;;;;5020166;28;20404;-75
2022/07/19 07:29:34;;;;;;;2.08;0.40;;;28.60;99.90;;;;;;5018416;28;20044;-75
2022/07/19 07:32:00;;;;;;;1.35;0.40;;;28.80;99.90;;;;;;5018247;28;20448;-75
2022/07/19 07:34:26;;;;;;;1.95;0.40;;;29.00;99.90;;;;;;5021531;28;20071;-78
2022/07/19 07:36:51;;;;;;;2.40;0.40;;;29.20;99.90;;;;;;5003324;28;20056;-75
2022/07/19 07:39:17;;;;;;;1.67;0.50;;;29.40;99.90;;;;;;5003593;28;20045;-75
2022/07/19 07:41:43;;;;;;;4.60;1.38;;;29.30;99.90;;;;;;5015402;28;20041;-75
2022/07/19 07:44:09;;;;;;;1.83;0.40;;;29.40;99.90;;;;;;5024258;28;21036;-75
2022/07/19 07:46:34;;;;;;;2.33;0.47;;;29.50;99.90;;;;;;5019751;28;20029;-75
2022/07/19 07:49:00;;;;;;;1.52;0.40;;;29.70;99.90;;;;;;5021293;28;20033;-75
2022/07/19 07:51:26;;;;;;;1.60;0.40;;;29.90;99.90;;;;;;5001828;28;20033;-76
2022/07/19 07:53:52;;;;;;;2.85;0.47;;;30.00;99.90;;;;;;4991275;28;20053;-75
2022/07/19 07:56:17;;;;;;;1.75;0.40;;;30.00;99.90;;;;;;5018131;28;20167;-75
2022/07/19 07:58:43;;;;;;;1.52;0.40;;;30.20;99.90;;;;;;5017475;28;20124;-75
2022/07/19 08:01:09;;;;;;;1.45;0.40;;;30.30;99.90;;;;;;5005716;28;20052;-75
2022/07/19 08:03:34;;;;;;;1.52;0.43;;;30.10;99.90;;;;;;5026339;28;20037;-77
2022/07/19 08:06:00;;;;;;;2.45;0.40;;;30.40;99.90;;;;;;5013591;28;20088;-81
2022/07/19 08:08:29;;;;;;;2.10;0.43;;;30.50;99.90;;;;;;5022000;28;20120;-77
2022/07/19 08:10:56;;;;;;;2.15;0.40;;;30.80;99.90;;;;;;5005182;28;20034;-75
2022/07/19 08:13:22;;;;;;;2.20;0.40;;;30.80;99.90;;;;;;5019754;28;20041;-76
2022/07/19 08:15:48;;;;;;;2.25;0.40;;;30.90;99.90;;;;;;5019006;28;20033;-75
2022/07/19 08:18:14;;;;;;;0.98;0.32;;;31.10;99.90;;;;;;5015951;28;20406;-77
2022/07/19 08:20:40;;;;;;;1.70;0.40;;;31.00;99.90;;;;;;5033174;28;20110;-77
2022/07/19 08:23:06;;;;;;;1.38;0.30;;;31.20;99.90;;;;;;5022000;28;20152;-76
2022/07/19 08:25:33;;;;;;;1.50;0.30;;;31.30;99.90;;;;;;5022406;28;20539;-76
2022/07/19 08:28:00;;;;;;;2.75;0.40;;;31.40;99.90;;;;;;5013327;28;20112;-76
2022/07/19 08:30:25;;;;;;;1.25;0.30;;;31.90;99.90;;;;;;5017409;28;20115;-76
2022/07/19 08:32:51;;;;;;;1.67;0.40;;;32.10;99.90;;;;;;5011782;28;20029;-76
2022/07/19 08:35:17;;;;;;;1.67;0.30;;;32.40;99.90;;;;;;5017100;28;20033;-76
2022/07/19 08:37:42;;;;;;;3.47;0.30;;;32.40;99.90;;;;;;5015235;28;20400;-75
2022/07/19 08:40:08;;;;;;;0.85;0.30;;;32.20;99.90;;;;;;5019942;28;20488;-76
2022/07/19 08:42:34;;;;;;;2.92;0.30;;;32.50;99.90;;;;;;5018445;28;20413;-76
2022/07/19 08:45:02;;;;;;;2.28;0.30;;;32.60;99.90;;;;;;5018861;28;20088;-75
2022/07/19 08:47:31;;;;;;;1.10;0.30;;;32.80;99.90;;;;;;5021477;28;20029;-75
2022/07/19 08:49:59;;;;;;;1.20;0.40;;;32.70;99.90;;;;;;5021110;28;20037;-75
2022/07/19 08:52:25;;;;;;;1.73;0.30;;;32.80;99.90;;;;;;5002015;28;20172;-76
2022/07/19 08:54:50;;;;;;;1.67;0.30;;;33.00;99.90;;;;;;5023167;28;20091;-76
2022/07/19 09:00:02;;;;;;;3.03;0.30;;;33.10;99.90;;;;;;5018607;28;20497;-76
2022/07/19 09:02:28;;;;;;;1.55;0.30;;;33.30;99.70;;;;;;5014202;28;20033;-76
2022/07/19 09:05:07;;;;;;;1.90;0.30;;;33.50;99.90;;;;;;5005059;28;20828;-76
2022/07/19 09:07:35;;;;;;;1.55;0.30;;;33.50;99.70;;;;;;5009382;28;20030;-76
2022/07/19 09:10:17;;;;;;;2.25;0.40;;;33.50;99.20;;;;;;5022095;28;20099;-76
2022/07/19 09:13:14;;;;;;;1.52;0.30;;;33.40;99.30;;;;;;5026115;28;20377;-76
2022/07/19 09:15:49;;;;;;;2.30;0.30;;;33.50;99.80;;;;;;5021398;28;20033;-76
2022/07/19 09:18:32;;;;;;;0.93;0.30;;;33.60;99.50;;;;;;5037502;28;20119;-75
2022/07/19 09:21:01;;;;;;;1.40;0.30;;;33.60;99.30;;;;;;5021787;28;20640;-78
2022/07/19 09:23:27;;;;;;;1.10;0.30;;;33.90;99.90;;;;;;5017769;28;20510;-76
2022/07/19 09:25:55;;;;;;;2.28;0.30;;;34.10;99.00;;;;;;5014091;28;20098;-75
2022/07/19 09:28:23;;;;;;;1.77;0.30;;;34.50;99.10;;;;;;5022383;28;20072;-76
2022/07/19 09:30:53;;;;;;;1.98;0.40;;;34.30;98.40;;;;;;5025246;28;20060;-76
2022/07/19 09:33:21;;;;;;;1.50;0.30;;;34.40;99.30;;;;;;5022113;28;20068;-76
2022/07/19 09:35:48;;;;;;;0.70;0.20;;;34.50;99.00;;;;;;5007993;28;20036;-76
2022/07/19 09:38:23;;;;;;;1.38;0.30;;;34.80;98.20;;;;;;5024665;28;20053;-75
2022/07/19 09:40:51;;;;;;;1.73;0.30;;;34.90;98.30;;;;;;5020878;28;20053;-76
2022/07/19 09:43:19;;;;;;;3.55;0.30;;;35.00;98.20;;;;;;5023817;28;20072;-76
2022/07/19 09:45:45;;;;;;;1.80;0.30;;;35.00;98.10;;;;;;5023482;28;20044;-75
2022/07/19 09:48:11;;;;;;;1.70;0.30;;;35.00;98.00;;;;;;5018009;28;20478;-75
2022/07/19 09:50:37;;;;;;;1.73;0.40;;;35.30;98.70;;;;;;5017389;28;20088;-76
2022/07/19 09:53:05;;;;;;;1.00;0.30;;;35.20;98.00;;;;;;5024531;28;20038;-76
2022/07/19 09:55:31;;;;;;;1.15;0.30;;;35.20;98.00;;;;;;5004156;28;20037;-75
2022/07/19 09:57:58;;;;;;;2.60;0.30;;;35.10;97.80;;;;;;5023116;28;20022;-76
2022/07/19 10:00:25;;;;;;;2.80;0.32;;;35.50;97.00;;;;;;5018337;28;20559;-76
2022/07/19 10:02:59;;;;;;;3.38;0.40;;;35.70;97.70;;;;;;5022098;28;20080;-76
2022/07/19 10:05:27;;;;;;;3.85;0.30;;;35.90;97.40;;;;;;4998436;28;20061;-75
2022/07/19 10:07:54;;;;;;;2.28;0.32;;;35.60;97.20;;;;;;5018672;28;20547;-74
2022/07/19 10:10:22;;;;;;;1.13;0.38;;;35.80;97.20;;;;;;5017199;28;20040;-73
2022/07/19 10:12:50;;;;;;;3.47;0.40;;;35.70;97.00;;;;;;5019027;28;20156;-74
2022/07/19 10:15:17;;;;;;;1.47;0.30;;;35.80;97.40;;;;;;5024628;28;20034;-77
2022/07/19 10:18:02;;;;;;;1.25;0.30;;;35.90;97.00;;;;;;5019758;28;20017;-78
2022/07/19 10:20:29;;;;;;;1.08;0.30;;;36.10;97.10;;;;;;5020073;28;20036;-76
2022/07/19 10:23:02;;;;;;;2.15;0.47;;;36.30;96.90;;;;;;5022744;28;20552;-79
2022/07/19 10:25:41;;;;;;;0.82;0.28;;;36.30;96.00;;;;;;5020356;28;20066;-76
2022/07/19 10:28:31;;;;;;;1.70;0.35;;;36.20;96.10;;;;;;5014040;28;20034;-76
2022/07/19 10:30:57;;;;;;;0.82;0.28;;;36.10;96.00;;;;;;5011101;28;20041;-76
2022/07/19 10:33:27;;;;;;;1.35;0.35;;;36.40;96.20;;;;;;5013945;28;20045;-79
2022/07/19 10:35:53;;;;;;;1.58;0.30;;;36.40;95.50;;;;;;5008996;28;20100;-77
2022/07/19 10:38:18;;;;;;;2.22;0.40;;;36.30;95.40;;;;;;5010044;28;20083;-76
2022/07/19 10:40:47;;;;;;;1.27;0.30;;;36.50;95.90;;;;;;5014065;28;20041;-76
2022/07/19 10:43:17;;;;;;;;;;;36.30;95.00;;;;;;5014310;28;20034;-76
2022/07/19 10:45:56;;;;;;;1.67;0.28;;;36.30;95.10;;;;;;5013732;28;20077;-77
2022/07/19 10:48:36;;;;;;;1.48;0.30;;;36.20;95.20;;;;;;4992760;28;20401;-78
2022/07/19 10:51:02;;;;;;;3.25;0.40;;;36.50;96.00;;;;;;4995771;28;20029;-78
2022/07/19 10:53:40;;;;;;;2.35;0.30;;;36.90;95.90;;;;;;4990958;28;20475;-76
2022/07/19 10:56:15;;;;;;;0.93;0.20;;;36.90;95.00;;;;;;5012201;28;20041;-76
2022/07/19 10:58:52;;;;;;;1.58;0.30;;;37.60;95.00;;;;;;4997828;28;20034;-81
2022/07/19 11:01:20;;;;;;;1.38;0.30;;;37.50;94.60;;;;;;5013309;28;20405;-78
2022/07/19 11:03:47;;;;;;;2.28;0.20;;;37.40;94.80;;;;;;5014513;28;20040;-76
2022/07/19 11:06:27;;;;;;;2.40;0.30;;;37.50;94.60;;;;;;4997646;28;20029;-80
2022/07/19 11:08:57;;;;;;;1.13;0.30;;;37.40;94.40;;;;;;5009809;28;20034;-76
2022/07/19 11:11:25;;;;;;;0.95;0.20;;;37.50;95.00;;;;;;5016804;28;20097;-76
2022/07/19 11:14:00;;;;;;;2.15;0.30;;;37.60;94.00;;;;;;5016303;28;20530;-82
2022/07/19 11:16:27;;;;;;;1.88;0.30;;;37.80;93.80;;;;;;5016264;28;20091;-76
2022/07/19 11:19:03;;;;;;;1.42;0.38;;;37.50;93.70;;;;;;5013553;28;20509;-76
2022/07/19 11:21:36;;;;;;;1.67;0.30;;;37.60;93.90;;;;;;5018531;28;20033;-76
2022/07/19 11:24:02;;;;;;;1.15;0.30;;;37.50;93.90;;;;;;5017394;28;20033;-77
2022/07/19 11:26:37;;;;;;;2.72;0.20;;;37.40;93.00;;;;;;5014843;28;20563;-76
2022/07/19 11:29:03;;;;;;;0.98;0.38;;;37.70;93.50;;;;;;5033318;28;20029;-75
2022/07/19 11:31:29;;;;;;;1.08;0.30;;;37.70;93.70;;;;;;5022146;28;20631;-74
2022/07/19 11:33:59;;;;;;;2.30;0.25;;;37.90;93.20;;;;;;5017381;28;20494;-74
2022/07/19 11:36:26;;;;;;;0.98;0.22;;;37.80;93.40;;;;;;5016236;28;20461;-73
2022/07/19 11:39:00;;;;;;;1.55;0.20;;;37.70;92.80;;;;;;5014739;28;20104;-74
2022/07/19 11:41:28;;;;;;;1.88;0.40;;;38.10;93.30;;;;;;5019611;28;20041;-73
2022/07/19 11:43:59;;;;;;;1.38;0.20;;;38.10;93.20;;;;;;5020664;28;20041;-74
2022/07/19 11:46:28;;;;;;;1.30;0.20;;;38.50;92.80;;;;;;5013041;28;20037;-79
2022/07/19 11:48:58;;;;;;;2.30;0.30;;;38.30;92.80;;;;;;5013709;28;20029;-74
2022/07/19 11:51:25;;;;;;;0.75;0.20;;;38.30;92.90;;;;;;5012510;28;20478;-74
2022/07/19 11:53:53;;;;;;;0.93;0.20;;;38.60;93.40;;;;;;5002092;28;20060;-75
2022/07/19 11:56:24;;;;;;;1.10;0.30;;;38.40;92.80;;;;;;5013139;28;20489;-74
2022/07/19 11:58:51;;;;;;;1.85;0.30;;;37.50;92.40;;;;;;5007458;28;20034;-74
2022/07/19 12:01:35;;;;;;;1.65;0.40;;;37.90;92.80;;;;;;5009316;28;20025;-82
2022/07/19 12:04:06;;;;;;;2.10;0.22;;;38.40;92.40;;;;;;5013924;28;20032;-74
2022/07/19 12:06:46;;;;;;;0.57;0.30;;;38.40;92.10;;;;;;5016568;28;20437;-74
2022/07/19 12:09:27;;;;;;;2.78;0.20;;;38.60;92.60;;;;;;5015962;28;20040;-73
2022/07/19 12:11:54;;;;;;;1.35;0.30;;;38.40;91.30;;;;;;5012319;28;20496;-75
2022/07/19 12:14:20;;;;;;;1.33;0.30;;;38.20;91.90;;;;;;4997911;28;20202;-74
2022/07/19 12:16:47;;;;;;;1.38;0.25;;;38.10;92.50;;;;;;4992821;28;20108;-76
2022/07/19 12:19:14;;;;;;;2.95;0.20;;;38.30;91.40;;;;;;5021479;28;20045;-73
2022/07/19 12:21:41;;;;;;;3.40;0.20;;;38.40;92.10;;;;;;5020598;28;20079;-74
2022/07/19 12:24:23;;;;;;;2.08;0.17;;;38.50;91.90;;;;;;5019008;28;20052;-73
2022/07/19 12:26:53;;;;;;;2.75;0.20;;;38.60;91.80;;;;;;5017781;28;20072;-75
2022/07/19 12:29:40;;;;;;;1.38;0.20;;;38.20;91.70;;;;;;5014639;28;20041;-78
2022/07/19 12:32:10;;;;;;;0.30;0.10;;;38.40;90.70;;;;;;5015819;28;20025;-74
2022/07/19 12:34:56;;;;;;;1.63;0.20;;;38.60;91.20;;;;;;5017082;28;20064;-73
2022/07/19 12:37:31;;;;;;;0.63;0.13;;;38.70;90.50;;;;;;5015556;28;21999;-74
2022/07/19 12:40:06;;;;;;;0.95;0.13;;;38.70;89.80;;;;;;5021273;28;20487;-78
2022/07/19 12:42:48;;;;;;;0.73;0.15;;;38.70;90.20;;;;;;5030459;28;20036;-77
2022/07/19 12:45:20;;;;;;;1.88;0.20;;;38.80;90.00;;;;;;5037614;28;20025;-77
2022/07/19 12:47:48;;;;;;;0.57;0.13;;;38.70;90.20;;;;;;5022894;28;20025;-74
2022/07/19 12:50:19;;;;;;;1.35;0.17;;;38.80;90.80;;;;;;5019454;28;20136;-76
2022/07/19 12:52:45;;;;;;;1.38;0.10;;;38.70;90.20;;;;;;5006455;28;20037;-74